Detall de PIREP

Printer-friendly versionPDF version

[2013/01/15 11:10:00]
Flight IATA:CT1005
Pilot Number:011
Company ICAO:CAT
Aircraft Type:F28/A
PAX:85
Departing Airport: LIMJ
Destination Airport: LEBL
Alternate Airport:LEPA
Online: VATSIM
Route:LAGEN UM859 VAMTU UM984 DIVKO UN975 BISBA
Flight Level:F290
No Slew and time accel
No pause
Crash detect
Detect pilot in Cockpit between each 30 and 45 minutes
11:10 Zero fuel Weight: 59656 Lbs, Fuel Weight: 10839 Lbs
11:10 VATSIM:LIMJ 151050Z 05007KT 9999 -RA VCSH SCT012CB BKN022 05/02 Q1006
11:10 VATSIM:LEBL 151030Z 30017G29KT 9999 FEW020 BKN040 12/03 Q1009 NOSIG
11:13 Parking Brakes off
11:24 Take-off
11:24 Take off Weight: 70026 Lbs
11:24 Wind: 050º @ 007 Knots Heading: 102º
11:24 POS N44º 24´ 42´´ E008º 50´ 36´´
11:24 Flaps:3 at 157 Knots
11:24 Gear Up: 157 Knots
11:24 Flaps:2 at 190 Knots
11:24 Flaps:1 at 207 Knots
11:24 Flaps:0 at 215 Knots
11:39 Wind:247º@010Knots Heading: 227º Ground Speed: 418 Knots Altitude 26758 ft
11:40 TOC
11:40 Fuel Weight: 8140 Lb
11:54 Wind:337º@026 Knots Heading: 249º Ground Speed: 438 Knots Altitude 28815 ft
12:04 TOD
12:04 Fuel Weight: 6457 Lb
12:09 Wind:306º@032 Knots Heading: 249º Ground Speed: 374 Knots Altitude 19051 ft
12:24 Wind:292º@028 Knots Heading: 231º Ground Speed: 252 Knots Altitude 7001 ft
12:28 Flaps:1 at 208 Knots
12:28 Flaps:2 at 204 Knots
12:29 Flaps:3 at 185 Knots
12:29 Flaps:4 at 171 Knots
12:29 Gear Down: 170 Knots
12:30 Flaps:3 at 146 Knots
12:30 Flaps:5 at 145 Knots
12:34 TouchDown:Rate -294 ft/min Speed: 101 Knots
12:34 VATSIM:LEBL 151200Z 31011KT 260V350 9999 FEW020 SCT040 12/03 Q1008 NOSIG
12:34 Land
12:34 Wind:311º@011 Knots
12:34 Heading: 047º
12:34 Flight Duration: 01:10
12:34 Landing Weight: 64587 Lbs
12:34 POS N41º 17´ 16´´ E002º 05´ 26´´
12:38 Parking brakes on
12:38 Block to Block Duration: 01:25
12:38 Final Fuel: 4772 Lbls
12:38 Spent Fuel: 6067 Lbls
12:38 Flight Length: 128 NM
12:38 TOD Land Length: 68 NM

Exportar CSV

Powered by Drupal - Modified by Danger4k